createdAt,value
2017-11-24T00:00:58.359Z,3.80
2017-11-24T00:04:22.657Z,5.37
2017-11-24T00:19:28.753Z,8.40
2017-11-24T00:26:44.807Z,4.37
2017-11-24T00:30:08.286Z,4.90
2017-11-24T00:33:32.509Z,5.07
2017-11-24T00:40:36.772Z,3.50
2017-11-24T00:44:00.279Z,4.67
2017-11-24T00:47:23.855Z,3.30
2017-11-24T00:50:47.315Z,5.87
2017-11-24T00:54:10.803Z,4.73
2017-11-24T00:57:34.259Z,3.53
2017-11-24T01:00:57.705Z,3.30
2017-11-24T01:04:21.165Z,4.07
2017-11-24T01:07:44.809Z,2.70
2017-11-24T01:11:08.277Z,7.50
2017-11-24T01:14:32.572Z,3.00
2017-11-24T01:17:56.819Z,2.90
2017-11-24T01:21:20.349Z,3.07
2017-11-24T01:24:44.553Z,3.73
2017-11-24T01:28:08.012Z,4.87
2017-11-24T01:31:31.469Z,2.53
2017-11-24T01:34:54.961Z,2.80
2017-11-24T01:38:18.576Z,5.13
2017-11-24T01:41:42.044Z,4.40
2017-11-24T01:45:05.528Z,2.87
2017-11-24T01:48:28.981Z,2.50
2017-11-24T01:51:52.452Z,3.33
2017-11-24T01:55:15.908Z,4.07
2017-11-24T01:58:41.003Z,2.23
2017-11-24T02:02:04.471Z,3.63
2017-11-24T02:05:27.912Z,2.20
2017-11-24T02:08:52.147Z,2.70
2017-11-24T02:12:15.610Z,2.87
2017-11-24T02:15:39.050Z,3.30
2017-11-24T02:19:03.392Z,2.33
2017-11-24T02:22:26.854Z,3.30
2017-11-24T02:25:50.314Z,2.43
2017-11-24T02:29:13.773Z,3.20
2017-11-24T02:32:37.207Z,3.30
2017-11-24T02:36:00.661Z,5.07
2017-11-24T02:39:24.123Z,4.50
2017-11-24T02:42:47.563Z,1.80
2017-11-24T02:46:11.240Z,4.60
2017-11-24T02:49:34.688Z,3.27
2017-11-24T02:52:58.923Z,4.30
2017-11-24T02:56:22.381Z,1.73
2017-11-24T02:59:45.813Z,1.83
2017-11-24T03:03:09.499Z,4.50
2017-11-24T03:06:33.726Z,3.23
2017-11-24T03:09:58.016Z,3.60
2017-11-24T03:13:21.478Z,2.10
2017-11-24T03:16:44.947Z,3.33
2017-11-24T03:20:08.391Z,3.07
2017-11-24T03:23:31.984Z,2.93
2017-11-24T03:26:55.442Z,2.30
2017-11-24T03:30:18.933Z,5.27
2017-11-24T03:33:42.380Z,2.43
2017-11-24T03:37:06.640Z,3.77
2017-11-24T03:40:30.095Z,4.50
2017-11-24T03:43:53.551Z,3.30
2017-11-24T03:47:17.028Z,2.30
2017-11-24T03:50:40.462Z,2.20
2017-11-24T03:54:04.067Z,4.07
2017-11-24T03:57:27.530Z,4.90
2017-11-24T04:00:51.004Z,1.73
2017-11-24T04:04:14.559Z,1.60
2017-11-24T04:07:38.039Z,3.43
2017-11-24T04:11:01.505Z,2.30
2017-11-24T04:14:24.991Z,3.73
2017-11-24T04:17:48.452Z,2.47
2017-11-24T04:21:11.907Z,2.93
2017-11-24T04:24:35.360Z,3.37
2017-11-24T04:27:59.592Z,2.83
2017-11-24T04:31:23.071Z,2.03
2017-11-24T04:34:46.504Z,1.73
2017-11-24T04:38:10.747Z,1.87
2017-11-24T04:41:34.204Z,2.90
2017-11-24T04:44:57.672Z,5.60
2017-11-24T04:48:21.128Z,1.50
2017-11-24T04:51:44.580Z,2.10
2017-11-24T04:55:08.830Z,3.47
2017-11-24T04:58:32.281Z,1.60
2017-11-24T05:01:55.753Z,4.17
2017-11-24T05:05:19.235Z,2.07
2017-11-24T05:08:42.743Z,1.73
2017-11-24T05:12:06.967Z,1.67
2017-11-24T05:15:30.457Z,2.03
2017-11-24T05:18:53.909Z,1.63
2017-11-24T05:22:17.375Z,2.67
2017-11-24T05:25:40.845Z,2.40
2017-11-24T05:29:04.320Z,1.40
2017-11-24T05:32:27.780Z,2.47
2017-11-24T05:35:52.188Z,2.20
2017-11-24T05:39:15.657Z,1.80
2017-11-24T05:42:39.128Z,1.60
2017-11-24T05:46:02.605Z,3.43
2017-11-24T05:49:26.985Z,1.30
2017-11-24T05:52:50.448Z,1.40
2017-11-24T05:56:14.671Z,1.77
2017-11-24T05:59:38.170Z,1.27
2017-11-24T06:03:03.120Z,1.13
2017-11-24T06:06:26.607Z,1.50
2017-11-24T06:09:50.108Z,0.90
2017-11-24T06:13:13.558Z,1.23
2017-11-24T06:16:37.059Z,2.07
2017-11-24T06:20:00.560Z,0.80
2017-11-24T06:23:24.785Z,1.77
2017-11-24T06:26:48.249Z,1.53
2017-11-24T06:30:11.729Z,1.20
2017-11-24T06:33:35.183Z,1.50
2017-11-24T06:36:59.437Z,1.27
2017-11-24T06:40:23.707Z,1.30
2017-11-24T06:43:47.241Z,1.10
2017-11-24T06:47:10.702Z,1.33
2017-11-24T06:50:34.918Z,1.10
2017-11-24T06:53:58.381Z,0.80
2017-11-24T06:57:21.848Z,1.50
2017-11-24T07:00:45.317Z,1.00
2017-11-24T07:04:09.532Z,1.80
2017-11-24T07:07:32.984Z,2.10
2017-11-24T07:10:56.445Z,1.43
2017-11-24T07:14:20.304Z,1.80
2017-11-24T07:17:43.728Z,1.50
2017-11-24T07:21:07.216Z,2.60
2017-11-24T07:24:30.676Z,1.30
2017-11-24T07:27:54.289Z,1.07
2017-11-24T07:31:17.840Z,3.07
2017-11-24T07:34:41.299Z,1.20
2017-11-24T07:38:04.772Z,1.27
2017-11-24T07:41:28.320Z,1.57
2017-11-24T07:44:52.531Z,1.33
2017-11-24T07:48:16.088Z,1.30
2017-11-24T07:51:39.555Z,1.20
2017-11-24T07:55:03.008Z,1.77
2017-11-24T07:58:27.237Z,1.20
2017-11-24T08:01:50.699Z,1.23
2017-11-24T08:05:14.235Z,1.97
2017-11-24T08:08:38.517Z,2.17
2017-11-24T08:12:01.996Z,1.40
2017-11-24T08:15:26.216Z,1.47
2017-11-24T08:18:49.785Z,1.60
2017-11-24T08:22:13.955Z,2.93
2017-11-24T08:25:37.496Z,1.73
2017-11-24T08:29:02.459Z,1.57
2017-11-24T08:32:25.928Z,1.57
2017-11-24T08:35:49.410Z,1.67
2017-11-24T08:39:12.848Z,2.83
2017-11-24T08:42:36.343Z,1.83
2017-11-24T08:45:59.819Z,2.80
2017-11-24T08:49:29.061Z,2.37
2017-11-24T08:52:52.491Z,1.60
2017-11-24T08:56:16.016Z,1.60
2017-11-24T08:59:39.644Z,1.97
2017-11-24T09:03:03.857Z,1.67
2017-11-24T09:06:28.227Z,1.20
2017-11-24T09:09:51.799Z,3.37
2017-11-24T09:13:16.088Z,3.57
2017-11-24T09:16:40.314Z,1.80
2017-11-24T09:20:03.847Z,1.67
2017-11-24T09:23:28.059Z,2.97
2017-11-24T09:26:51.511Z,1.57
2017-11-24T09:30:16.636Z,1.67
2017-11-24T09:33:40.253Z,2.43
2017-11-24T09:37:03.716Z,2.00
2017-11-24T09:40:28.747Z,2.90
2017-11-24T09:43:53.004Z,2.20
2017-11-24T09:47:16.486Z,1.23
2017-11-24T09:50:39.948Z,2.03
2017-11-24T09:54:03.454Z,1.70
2017-11-24T09:57:26.932Z,2.00
2017-11-24T10:00:51.180Z,1.93
2017-11-24T10:04:14.665Z,1.87
2017-11-24T10:07:39.759Z,4.30
2017-11-24T10:11:03.216Z,2.80
2017-11-24T10:14:26.697Z,2.53
2017-11-24T10:17:50.179Z,4.47
2017-11-24T10:21:19.329Z,2.60
2017-11-24T10:24:43.573Z,2.83
2017-11-24T10:28:07.130Z,3.30
2017-11-24T10:31:30.604Z,2.20
2017-11-24T10:34:54.088Z,2.70
2017-11-24T10:38:17.581Z,2.67
2017-11-24T10:41:42.549Z,1.60
2017-11-24T10:45:06.037Z,3.40
2017-11-24T10:48:29.489Z,4.03
2017-11-24T10:51:52.985Z,4.30
2017-11-24T10:55:16.492Z,4.10
2017-11-24T10:58:40.727Z,2.80
2017-11-24T11:02:04.187Z,2.70
2017-11-24T11:05:27.779Z,1.80
2017-11-24T11:08:51.229Z,3.20
2017-11-24T11:12:14.700Z,2.70
2017-11-24T11:15:38.166Z,3.23
2017-11-24T11:19:01.636Z,3.13
2017-11-24T11:22:25.106Z,4.87
2017-11-24T11:25:48.593Z,2.57
2017-11-24T11:29:12.067Z,2.70
2017-11-24T11:32:35.637Z,4.90
2017-11-24T11:35:59.098Z,4.17
2017-11-24T11:39:22.572Z,2.33
2017-11-24T11:42:46.216Z,4.83
2017-11-24T11:46:09.678Z,4.23
2017-11-24T11:49:33.946Z,6.37
2017-11-24T11:52:57.411Z,2.30
2017-11-24T11:56:21.019Z,3.30
2017-11-24T11:59:44.449Z,3.00
2017-11-24T12:03:07.999Z,2.67
2017-11-24T12:06:32.403Z,2.90
2017-11-24T12:09:55.914Z,2.13
2017-11-24T12:13:19.437Z,4.23
2017-11-24T12:16:43.645Z,3.30
2017-11-24T12:20:07.148Z,2.53
2017-11-24T12:23:31.807Z,1.73
2017-11-24T12:26:55.285Z,2.50
2017-11-24T12:30:18.762Z,2.83
2017-11-24T12:33:42.265Z,2.80
2017-11-24T12:37:05.767Z,3.90
2017-11-24T12:40:29.996Z,2.50
2017-11-24T12:43:53.487Z,2.00
2017-11-24T12:47:17.122Z,1.90
2017-11-24T12:50:41.388Z,1.90
2017-11-24T12:54:05.623Z,2.60
2017-11-24T12:57:29.287Z,3.33
2017-11-24T13:00:53.505Z,2.23
2017-11-24T13:04:16.993Z,1.60
2017-11-24T13:07:40.456Z,2.10
2017-11-24T13:11:03.971Z,2.03
2017-11-24T13:14:28.214Z,2.80
2017-11-24T13:17:51.678Z,2.60
2017-11-24T13:21:15.115Z,2.80
2017-11-24T13:24:38.726Z,2.33
2017-11-24T13:28:02.194Z,2.43
2017-11-24T13:31:25.676Z,3.40
2017-11-24T13:34:49.219Z,1.93
2017-11-24T13:38:12.692Z,2.03
2017-11-24T13:41:36.240Z,2.33
2017-11-24T13:45:00.462Z,3.40
2017-11-24T13:48:23.929Z,4.50
2017-11-24T13:51:47.696Z,3.50
2017-11-24T13:55:11.154Z,2.00
2017-11-24T13:58:34.626Z,2.03
2017-11-24T14:01:58.121Z,3.70
2017-11-24T14:05:21.610Z,2.50
2017-11-24T14:08:45.097Z,2.40
2017-11-24T14:12:08.570Z,2.00
2017-11-24T14:15:32.938Z,2.70
2017-11-24T14:18:56.404Z,2.50
2017-11-24T14:22:19.873Z,2.60
2017-11-24T14:25:43.362Z,2.40
2017-11-24T14:29:06.807Z,3.20
2017-11-24T14:32:30.313Z,3.17
2017-11-24T14:35:53.805Z,2.47
2017-11-24T14:39:19.060Z,3.30
2017-11-24T14:42:43.283Z,5.57
2017-11-24T14:46:06.787Z,4.77
2017-11-24T14:49:31.033Z,3.47
2017-11-24T14:52:54.560Z,7.50
2017-11-24T14:56:18.069Z,7.50
2017-11-24T14:59:41.558Z,5.27
2017-11-24T15:03:05.203Z,3.53
2017-11-24T15:06:28.670Z,4.07
2017-11-24T15:09:52.201Z,6.60
2017-11-24T15:13:15.677Z,3.13
2017-11-24T15:16:39.137Z,3.00
2017-11-24T15:20:02.638Z,4.13
2017-11-24T15:23:27.612Z,3.53
2017-11-24T15:26:51.888Z,3.93
2017-11-24T15:30:15.436Z,4.10
2017-11-24T15:33:39.736Z,3.07
2017-11-24T15:37:03.346Z,5.27
2017-11-24T15:40:26.815Z,2.77
2017-11-24T15:43:50.333Z,6.57
2017-11-24T15:47:14.580Z,3.87
2017-11-24T15:50:38.094Z,3.37
2017-11-24T15:54:02.319Z,4.77
2017-11-24T15:57:25.785Z,3.47
2017-11-24T16:00:49.281Z,3.20
2017-11-24T16:04:12.778Z,3.13
2017-11-24T16:07:36.257Z,4.47
2017-11-24T16:10:59.741Z,3.67
2017-11-24T16:14:23.391Z,3.47
2017-11-24T16:17:46.846Z,2.50
2017-11-24T16:21:10.377Z,2.10
2017-11-24T16:24:33.914Z,3.00
2017-11-24T16:27:57.409Z,3.07
2017-11-24T16:31:21.654Z,3.03
2017-11-24T16:34:45.140Z,2.50
2017-11-24T16:38:10.271Z,3.63
2017-11-24T16:41:33.770Z,2.13
2017-11-24T16:44:57.369Z,2.37
2017-11-24T16:48:20.844Z,3.63
2017-11-24T16:51:44.361Z,2.73
2017-11-24T16:55:07.809Z,2.60
2017-11-24T16:58:32.089Z,2.30
2017-11-24T17:01:55.581Z,2.70
2017-11-24T17:05:20.548Z,3.10
2017-11-24T17:08:44.039Z,4.00
2017-11-24T17:12:07.530Z,2.40
2017-11-24T17:15:30.995Z,2.33
2017-11-24T17:18:54.496Z,3.73
2017-11-24T17:22:18.809Z,3.30
2017-11-24T17:25:42.282Z,2.97
2017-11-24T17:29:06.509Z,4.43
2017-11-24T17:32:29.989Z,2.10
2017-11-24T17:35:55.018Z,2.70
2017-11-24T17:39:19.279Z,4.27
2017-11-24T17:42:42.743Z,3.67
2017-11-24T17:46:06.220Z,3.33
2017-11-24T17:49:31.208Z,2.20
2017-11-24T17:52:54.701Z,2.40
2017-11-24T17:56:18.178Z,2.90
2017-11-24T17:59:41.658Z,2.70
2017-11-24T18:03:06.640Z,2.50
2017-11-24T18:06:30.133Z,2.57
2017-11-24T18:09:54.294Z,2.57
2017-11-24T18:13:18.792Z,2.80
2017-11-24T18:16:42.268Z,3.57
2017-11-24T18:20:05.816Z,5.63
2017-11-24T18:23:29.288Z,6.00
2017-11-24T18:26:52.815Z,3.80
2017-11-24T18:30:16.436Z,2.00
2017-11-24T18:33:39.924Z,2.17
2017-11-24T18:37:03.467Z,3.37
2017-11-24T18:40:27.749Z,3.20
2017-11-24T18:43:51.963Z,4.77
2017-11-24T18:47:15.525Z,16.97
2017-11-24T18:50:39.027Z,18.53
2017-11-24T18:54:02.545Z,16.20
2017-11-24T18:57:27.118Z,15.73
2017-11-24T19:00:50.610Z,14.10
2017-11-24T19:04:14.081Z,9.60
2017-11-24T19:07:37.620Z,8.87
2017-11-24T19:11:01.834Z,29.83
2017-11-24T19:14:26.839Z,41.50
2017-11-24T19:17:50.440Z,30.67
2017-11-24T19:21:14.050Z,25.53
2017-11-24T19:24:37.696Z,28.60
2017-11-24T19:28:01.993Z,29.40
2017-11-24T19:31:26.267Z,21.50
2017-11-24T19:34:50.521Z,29.60
2017-11-24T19:38:14.083Z,16.67
2017-11-24T19:41:37.572Z,18.57
2017-11-24T19:45:01.303Z,13.20
2017-11-24T19:48:25.710Z,11.57
2017-11-24T19:51:49.347Z,11.67
2017-11-24T19:55:13.605Z,10.77
2017-11-24T19:58:37.100Z,8.40
2017-11-24T20:02:00.590Z,16.03
2017-11-24T20:05:24.849Z,8.47
2017-11-24T20:08:48.339Z,7.90
2017-11-24T20:12:13.490Z,7.37
2017-11-24T20:15:37.795Z,8.33
2017-11-24T20:19:01.325Z,8.40
2017-11-24T20:22:24.820Z,10.90
2017-11-24T20:25:48.317Z,6.47
2017-11-24T20:29:11.841Z,10.43
2017-11-24T20:32:35.321Z,11.00
2017-11-24T20:35:58.877Z,6.80
2017-11-24T20:39:22.501Z,7.67
2017-11-24T20:42:46.125Z,8.33
2017-11-24T20:46:10.398Z,10.38
2017-11-24T20:49:33.917Z,7.93
2017-11-24T20:52:58.145Z,8.97
2017-11-24T20:56:21.624Z,11.07
2017-11-24T20:59:45.103Z,10.27
2017-11-24T21:03:09.441Z,7.80
2017-11-24T21:06:33.717Z,7.70
2017-11-24T21:09:57.248Z,7.80
2017-11-24T21:13:20.888Z,7.30
2017-11-24T21:16:44.392Z,7.03
2017-11-24T21:20:08.667Z,7.90
2017-11-24T21:23:32.154Z,7.87
2017-11-24T21:26:55.634Z,8.10
2017-11-24T21:30:19.151Z,8.77
2017-11-24T21:33:43.465Z,9.20
2017-11-24T21:37:07.010Z,7.90
2017-11-24T21:40:31.364Z,8.73
2017-11-24T21:43:54.860Z,8.83
2017-11-24T21:47:19.872Z,8.70
2017-11-24T21:50:45.058Z,8.53
2017-11-24T21:54:08.606Z,7.90
2017-11-24T21:57:32.096Z,7.07
2017-11-24T22:00:55.546Z,8.43
2017-11-24T22:04:19.029Z,7.80
2017-11-24T22:07:42.564Z,8.87
2017-11-24T22:11:06.824Z,7.90
2017-11-24T22:14:30.284Z,8.00
2017-11-24T22:17:53.955Z,9.40
2017-11-24T22:21:17.474Z,9.73
2017-11-24T22:24:42.093Z,7.63
2017-11-24T22:28:05.583Z,7.93
2017-11-24T22:31:29.239Z,9.90
2017-11-24T22:34:52.713Z,8.40
2017-11-24T22:38:16.186Z,9.23
2017-11-24T22:41:39.699Z,8.97
2017-11-24T22:45:03.166Z,9.87
2017-11-24T22:48:26.639Z,9.63
2017-11-24T22:51:50.119Z,7.93
2017-11-24T22:55:13.594Z,8.67
2017-11-24T22:58:37.071Z,8.33
2017-11-24T23:02:00.615Z,7.93
2017-11-24T23:05:24.079Z,8.70
2017-11-24T23:08:47.574Z,8.07
2017-11-24T23:12:11.088Z,8.57
2017-11-24T23:15:34.588Z,9.10
2017-11-24T23:18:58.069Z,9.23
2017-11-24T23:22:21.553Z,8.40
2017-11-24T23:25:45.000Z,8.03
2017-11-24T23:29:08.490Z,7.63
2017-11-24T23:32:31.972Z,13.93
2017-11-24T23:35:55.475Z,8.00
2017-11-24T23:39:18.925Z,9.13
2017-11-24T23:42:42.426Z,9.30
2017-11-24T23:46:06.651Z,8.40
2017-11-24T23:49:30.138Z,7.80
2017-11-24T23:52:53.629Z,7.80
2017-11-24T23:56:17.167Z,8.70
2017-11-24T23:59:41.399Z,12.83
